sensor_id;sensor_type;location;lat;lon;timestamp;temperature;humidity
24436;DHT22;12616;52.470;13.436;2023-02-18T00:02:09;8.00;1.00
24436;DHT22;12616;52.470;13.436;2023-02-18T00:04:38;7.10;62.60
24436;DHT22;12616;52.470;13.436;2023-02-18T00:07:05;7.60;1.00
24436;DHT22;12616;52.470;13.436;2023-02-18T00:09:31;7.70;1.00
24436;DHT22;12616;52.470;13.436;2023-02-18T00:14:25;7.20;1.00
24436;DHT22;12616;52.470;13.436;2023-02-18T00:16:52;7.00;1.00
24436;DHT22;12616;52.470;13.436;2023-02-18T00:19:19;7.40;99.90
24436;DHT22;12616;52.470;13.436;2023-02-18T00:21:48;7.20;99.90
24436;DHT22;12616;52.470;13.436;2023-02-18T00:24:15;7.50;99.90
24436;DHT22;12616;52.470;13.436;2023-02-18T00:26:42;7.20;99.90
24436;DHT22;12616;52.470;13.436;2023-02-18T00:29:09;7.10;1.00
24436;DHT22;12616;52.470;13.436;2023-02-18T00:31:38;7.20;99.90
24436;DHT22;12616;52.470;13.436;2023-02-18T00:36:34;6.80;1.00
24436;DHT22;12616;52.470;13.436;2023-02-18T00:39:06;7.10;99.90
24436;DHT22;12616;52.470;13.436;2023-02-18T00:41:37;7.10;99.90
24436;DHT22;12616;52.470;13.436;2023-02-18T00:44:05;5.00;99.90
24436;DHT22;12616;52.470;13.436;2023-02-18T00:46:32;7.00;1.00
24436;DHT22;12616;52.470;13.436;2023-02-18T00:48:58;7.10;99.90
24436;DHT22;12616;52.470;13.436;2023-02-18T00:51:25;6.80;1.00
24436;DHT22;12616;52.470;13.436;2023-02-18T00:53:52;7.10;1.00
24436;DHT22;12616;52.470;13.436;2023-02-18T00:56:20;7.20;1.00
24436;DHT22;12616;52.470;13.436;2023-02-18T00:58:48;6.60;1.00
24436;DHT22;12616;52.470;13.436;2023-02-18T01:03:43;6.60;8.80
24436;DHT22;12616;52.470;13.436;2023-02-18T01:06:10;7.70;99.90
24436;DHT22;12616;52.470;13.436;2023-02-18T01:08:39;6.70;1.00
24436;DHT22;12616;52.470;13.436;2023-02-18T01:11:07;6.70;1.00
24436;DHT22;12616;52.470;13.436;2023-02-18T01:13:35;6.40;1.00
24436;DHT22;12616;52.470;13.436;2023-02-18T01:16:03;6.60;1.00
24436;DHT22;12616;52.470;13.436;2023-02-18T01:18:30;6.60;99.90
24436;DHT22;12616;52.470;13.436;2023-02-18T01:20:57;6.90;1.00
24436;DHT22;12616;52.470;13.436;2023-02-18T01:25:52;6.70;99.90
24436;DHT22;12616;52.470;13.436;2023-02-18T01:30:51;6.60;99.90
24436;DHT22;12616;52.470;13.436;2023-02-18T01:33:18;6.80;99.90
24436;DHT22;12616;52.470;13.436;2023-02-18T01:35:46;6.60;1.00
24436;DHT22;12616;52.470;13.436;2023-02-18T01:38:12;6.90;1.00
24436;DHT22;12616;52.470;13.436;2023-02-18T01:40:45;6.50;1.00
24436;DHT22;12616;52.470;13.436;2023-02-18T01:43:13;6.80;1.00
24436;DHT22;12616;52.470;13.436;2023-02-18T01:45:59;6.60;99.90
24436;DHT22;12616;52.470;13.436;2023-02-18T01:48:29;6.70;99.90
24436;DHT22;12616;52.470;13.436;2023-02-18T01:51:01;6.70;1.00
24436;DHT22;12616;52.470;13.436;2023-02-18T01:53:32;6.60;99.90
24436;DHT22;12616;52.470;13.436;2023-02-18T01:56:02;6.30;1.00
24436;DHT22;12616;52.470;13.436;2023-02-18T01:58:31;7.00;99.90
24436;DHT22;12616;52.470;13.436;2023-02-18T02:00:59;6.60;99.90
24436;DHT22;12616;52.470;13.436;2023-02-18T02:05:53;6.40;1.00
24436;DHT22;12616;52.470;13.436;2023-02-18T02:08:20;6.30;1.00
24436;DHT22;12616;52.470;13.436;2023-02-18T02:11:01;6.60;1.00
24436;DHT22;12616;52.470;13.436;2023-02-18T02:13:38;6.60;99.90
24436;DHT22;12616;52.470;13.436;2023-02-18T02:16:11;6.40;1.00
24436;DHT22;12616;52.470;13.436;2023-02-18T02:18:51;6.60;1.00
24436;DHT22;12616;52.470;13.436;2023-02-18T02:21:47;6.20;1.00
24436;DHT22;12616;52.470;13.436;2023-02-18T02:27:24;6.70;1.00
24436;DHT22;12616;52.470;13.436;2023-02-18T02:33:08;6.60;69.80
24436;DHT22;12616;52.470;13.436;2023-02-18T02:35:41;6.30;1.00
24436;DHT22;12616;52.470;13.436;2023-02-18T02:38:14;6.40;99.90
24436;DHT22;12616;52.470;13.436;2023-02-18T02:40:46;6.40;99.90
24436;DHT22;12616;52.470;13.436;2023-02-18T02:43:20;6.60;1.00
24436;DHT22;12616;52.470;13.436;2023-02-18T02:45:54;6.40;99.90
24436;DHT22;12616;52.470;13.436;2023-02-18T02:48:35;6.50;1.00
24436;DHT22;12616;52.470;13.436;2023-02-18T02:51:09;6.50;35.50
24436;DHT22;12616;52.470;13.436;2023-02-18T02:53:40;6.60;1.00
24436;DHT22;12616;52.470;13.436;2023-02-18T02:56:12;6.30;99.90
24436;DHT22;12616;52.470;13.436;2023-02-18T02:58:39;6.70;1.00
24436;DHT22;12616;52.470;13.436;2023-02-18T03:01:25;5.90;99.90
24436;DHT22;12616;52.470;13.436;2023-02-18T03:04:08;6.30;1.00
24436;DHT22;12616;52.470;13.436;2023-02-18T03:06:53;6.40;1.00
24436;DHT22;12616;52.470;13.436;2023-02-18T03:09:28;6.00;99.90
24436;DHT22;12616;52.470;13.436;2023-02-18T03:12:03;6.50;1.00
24436;DHT22;12616;52.470;13.436;2023-02-18T03:14:38;6.10;99.90
24436;DHT22;12616;52.470;13.436;2023-02-18T03:17:14;6.60;99.90
24436;DHT22;12616;52.470;13.436;2023-02-18T03:19:48;6.40;1.00
24436;DHT22;12616;52.470;13.436;2023-02-18T03:22:20;6.50;99.90
24436;DHT22;12616;52.470;13.436;2023-02-18T03:24:50;6.30;99.90
24436;DHT22;12616;52.470;13.436;2023-02-18T03:27:21;6.00;1.00
24436;DHT22;12616;52.470;13.436;2023-02-18T03:30:01;6.30;1.00
24436;DHT22;12616;52.470;13.436;2023-02-18T03:32:29;6.40;99.90
24436;DHT22;12616;52.470;13.436;2023-02-18T03:35:00;6.30;1.00
24436;DHT22;12616;52.470;13.436;2023-02-18T03:37:30;6.30;46.40
24436;DHT22;12616;52.470;13.436;2023-02-18T03:39:59;6.30;1.00
24436;DHT22;12616;52.470;13.436;2023-02-18T03:42:27;6.00;99.90
24436;DHT22;12616;52.470;13.436;2023-02-18T03:44:55;6.20;1.00
24436;DHT22;12616;52.470;13.436;2023-02-18T03:47:22;6.30;1.00
24436;DHT22;12616;52.470;13.436;2023-02-18T03:49:49;6.70;1.00
24436;DHT22;12616;52.470;13.436;2023-02-18T03:54:45;6.20;1.00
24436;DHT22;12616;52.470;13.436;2023-02-18T03:57:11;6.60;1.00
24436;DHT22;12616;52.470;13.436;2023-02-18T03:59:38;6.30;1.00
24436;DHT22;12616;52.470;13.436;2023-02-18T04:02:05;6.70;1.00
24436;DHT22;12616;52.470;13.436;2023-02-18T04:04:32;6.50;1.00
24436;DHT22;12616;52.470;13.436;2023-02-18T04:06:59;5.90;99.90
24436;DHT22;12616;52.470;13.436;2023-02-18T04:09:26;5.90;99.90
24436;DHT22;12616;52.470;13.436;2023-02-18T04:11:54;6.60;1.00
24436;DHT22;12616;52.470;13.436;2023-02-18T04:14:21;6.50;1.00
24436;DHT22;12616;52.470;13.436;2023-02-18T04:16:47;7.00;99.90
24436;DHT22;12616;52.470;13.436;2023-02-18T04:19:14;6.20;1.00
24436;DHT22;12616;52.470;13.436;2023-02-18T04:24:08;5.90;1.00
24436;DHT22;12616;52.470;13.436;2023-02-18T04:29:04;6.10;1.00
24436;DHT22;12616;52.470;13.436;2023-02-18T04:33:57;6.50;1.00
24436;DHT22;12616;52.470;13.436;2023-02-18T04:36:24;5.80;1.00
24436;DHT22;12616;52.470;13.436;2023-02-18T04:38:51;5.80;1.00
24436;DHT22;12616;52.470;13.436;2023-02-18T04:43:45;5.90;99.90
24436;DHT22;12616;52.470;13.436;2023-02-18T04:46:13;5.70;99.90
24436;DHT22;12616;52.470;13.436;2023-02-18T04:48:40;6.00;1.00
24436;DHT22;12616;52.470;13.436;2023-02-18T04:51:07;6.10;1.00
24436;DHT22;12616;52.470;13.436;2023-02-18T04:53:34;6.10;1.00
24436;DHT22;12616;52.470;13.436;2023-02-18T04:58:28;6.20;1.00
24436;DHT22;12616;52.470;13.436;2023-02-18T05:00:58;6.40;1.00
24436;DHT22;12616;52.470;13.436;2023-02-18T05:03:27;6.00;15.40
24436;DHT22;12616;52.470;13.436;2023-02-18T05:05:53;6.40;1.00
24436;DHT22;12616;52.470;13.436;2023-02-18T05:08:20;6.50;1.00
24436;DHT22;12616;52.470;13.436;2023-02-18T05:10:47;6.30;99.90
24436;DHT22;12616;52.470;13.436;2023-02-18T05:15:41;5.90;1.00
24436;DHT22;12616;52.470;13.436;2023-02-18T05:18:08;6.30;1.00
24436;DHT22;12616;52.470;13.436;2023-02-18T05:20:36;6.50;99.90
24436;DHT22;12616;52.470;13.436;2023-02-18T05:25:30;6.00;99.90
24436;DHT22;12616;52.470;13.436;2023-02-18T05:27:57;6.00;1.00
24436;DHT22;12616;52.470;13.436;2023-02-18T05:32:51;6.40;99.90
24436;DHT22;12616;52.470;13.436;2023-02-18T05:35:18;6.10;99.90
24436;DHT22;12616;52.470;13.436;2023-02-18T05:37:46;6.20;99.90
24436;DHT22;12616;52.470;13.436;2023-02-18T05:40:13;6.50;99.90
24436;DHT22;12616;52.470;13.436;2023-02-18T05:42:40;6.10;99.90
24436;DHT22;12616;52.470;13.436;2023-02-18T05:45:07;6.30;99.90
24436;DHT22;12616;52.470;13.436;2023-02-18T05:52:28;6.70;99.90
24436;DHT22;12616;52.470;13.436;2023-02-18T05:54:57;6.70;99.90
24436;DHT22;12616;52.470;13.436;2023-02-18T05:57:24;6.60;99.90
24436;DHT22;12616;52.470;13.436;2023-02-18T05:59:51;6.80;50.00
24436;DHT22;12616;52.470;13.436;2023-02-18T06:04:45;6.50;99.90
24436;DHT22;12616;52.470;13.436;2023-02-18T06:07:11;7.00;1.00
24436;DHT22;12616;52.470;13.436;2023-02-18T06:09:38;6.80;8.60
24436;DHT22;12616;52.470;13.436;2023-02-18T06:12:07;6.70;99.90
24436;DHT22;12616;52.470;13.436;2023-02-18T06:14:33;6.70;99.90
24436;DHT22;12616;52.470;13.436;2023-02-18T06:17:00;7.00;99.90
24436;DHT22;12616;52.470;13.436;2023-02-18T06:19:27;6.90;99.70
24436;DHT22;12616;52.470;13.436;2023-02-18T06:21:54;6.50;99.90
24436;DHT22;12616;52.470;13.436;2023-02-18T06:26:48;5.80;99.90
24436;DHT22;12616;52.470;13.436;2023-02-18T06:29:16;7.10;1.00
24436;DHT22;12616;52.470;13.436;2023-02-18T06:31:43;6.80;99.90
24436;DHT22;12616;52.470;13.436;2023-02-18T06:34:10;6.50;99.90
24436;DHT22;12616;52.470;13.436;2023-02-18T06:39:06;6.40;99.90
24436;DHT22;12616;52.470;13.436;2023-02-18T06:46:28;6.80;99.90
24436;DHT22;12616;52.470;13.436;2023-02-18T06:48:55;6.50;99.90
24436;DHT22;12616;52.470;13.436;2023-02-18T06:51:23;6.70;99.90
24436;DHT22;12616;52.470;13.436;2023-02-18T06:53:50;6.50;99.90
24436;DHT22;12616;52.470;13.436;2023-02-18T06:56:16;6.60;99.90
24436;DHT22;12616;52.470;13.436;2023-02-18T07:01:10;6.80;99.90
24436;DHT22;12616;52.470;13.436;2023-02-18T07:03:39;6.90;1.00
24436;DHT22;12616;52.470;13.436;2023-02-18T07:06:06;6.70;1.00
24436;DHT22;12616;52.470;13.436;2023-02-18T07:08:33;6.70;99.90
24436;DHT22;12616;52.470;13.436;2023-02-18T07:11:01;6.60;99.90
24436;DHT22;12616;52.470;13.436;2023-02-18T07:13:27;6.60;1.00
24436;DHT22;12616;52.470;13.436;2023-02-18T07:15:54;6.70;99.90
24436;DHT22;12616;52.470;13.436;2023-02-18T07:20:50;6.70;99.90
24436;DHT22;12616;52.470;13.436;2023-02-18T07:23:17;7.30;99.90
24436;DHT22;12616;52.470;13.436;2023-02-18T07:30:38;7.40;11.90
24436;DHT22;12616;52.470;13.436;2023-02-18T07:35:32;7.50;99.90
24436;DHT22;12616;52.470;13.436;2023-02-18T07:38:00;6.80;99.90
24436;DHT22;12616;52.470;13.436;2023-02-18T07:40:28;6.80;99.90
24436;DHT22;12616;52.470;13.436;2023-02-18T07:42:56;7.00;99.90
24436;DHT22;12616;52.470;13.436;2023-02-18T07:47:49;6.80;1.00
24436;DHT22;12616;52.470;13.436;2023-02-18T07:50:16;7.30;1.00
24436;DHT22;12616;52.470;13.436;2023-02-18T07:52:43;7.00;1.00
24436;DHT22;12616;52.470;13.436;2023-02-18T07:55:11;6.70;38.00
24436;DHT22;12616;52.470;13.436;2023-02-18T08:00:20;6.90;32.10
24436;DHT22;12616;52.470;13.436;2023-02-18T08:02:46;6.90;99.90
24436;DHT22;12616;52.470;13.436;2023-02-18T08:05:13;7.20;1.00
24436;DHT22;12616;52.470;13.436;2023-02-18T08:07:40;6.60;1.00
24436;DHT22;12616;52.470;13.436;2023-02-18T08:10:07;7.50;99.90
24436;DHT22;12616;52.470;13.436;2023-02-18T08:12:36;7.10;1.00
24436;DHT22;12616;52.470;13.436;2023-02-18T08:17:30;6.80;99.90
24436;DHT22;12616;52.470;13.436;2023-02-18T08:19:57;6.80;99.90
24436;DHT22;12616;52.470;13.436;2023-02-18T08:22:24;7.10;99.90
24436;DHT22;12616;52.470;13.436;2023-02-18T08:24:53;7.30;99.90
24436;DHT22;12616;52.470;13.436;2023-02-18T08:27:20;7.30;99.90
24436;DHT22;12616;52.470;13.436;2023-02-18T08:29:48;7.00;99.90
24436;DHT22;12616;52.470;13.436;2023-02-18T08:32:15;7.30;1.00
24436;DHT22;12616;52.470;13.436;2023-02-18T08:34:42;7.00;1.00
24436;DHT22;12616;52.470;13.436;2023-02-18T08:39:37;6.40;1.00
24436;DHT22;12616;52.470;13.436;2023-02-18T08:42:04;6.40;1.00
24436;DHT22;12616;52.470;13.436;2023-02-18T08:44:31;6.90;1.00
24436;DHT22;12616;52.470;13.436;2023-02-18T08:47:00;6.30;1.00
24436;DHT22;12616;52.470;13.436;2023-02-18T08:49:26;6.70;3.50
24436;DHT22;12616;52.470;13.436;2023-02-18T08:51:53;6.30;1.00
24436;DHT22;12616;52.470;13.436;2023-02-18T08:54:20;6.70;1.00
24436;DHT22;12616;52.470;13.436;2023-02-18T08:56:47;6.40;99.90
24436;DHT22;12616;52.470;13.436;2023-02-18T08:59:17;6.50;99.90
24436;DHT22;12616;52.470;13.436;2023-02-18T09:01:44;6.60;99.90
24436;DHT22;12616;52.470;13.436;2023-02-18T09:04:12;6.30;99.90
24436;DHT22;12616;52.470;13.436;2023-02-18T09:06:39;6.20;99.90
24436;DHT22;12616;52.470;13.436;2023-02-18T09:09:07;6.30;99.90
24436;DHT22;12616;52.470;13.436;2023-02-18T09:11:35;6.30;99.90
24436;DHT22;12616;52.470;13.436;2023-02-18T09:18:56;6.50;99.90
24436;DHT22;12616;52.470;13.436;2023-02-18T09:21:26;6.40;99.90
24436;DHT22;12616;52.470;13.436;2023-02-18T09:23:52;6.40;99.90
24436;DHT22;12616;52.470;13.436;2023-02-18T09:26:20;6.20;99.90
24436;DHT22;12616;52.470;13.436;2023-02-18T09:28:48;6.70;99.90
24436;DHT22;12616;52.470;13.436;2023-02-18T09:31:18;6.50;99.90
24436;DHT22;12616;52.470;13.436;2023-02-18T09:33:50;6.50;99.90
24436;DHT22;12616;52.470;13.436;2023-02-18T09:36:18;6.60;1.00
24436;DHT22;12616;52.470;13.436;2023-02-18T09:38:46;4.60;99.90
24436;DHT22;12616;52.470;13.436;2023-02-18T09:41:19;6.20;1.00
24436;DHT22;12616;52.470;13.436;2023-02-18T09:43:52;6.20;99.90
24436;DHT22;12616;52.470;13.436;2023-02-18T09:46:23;6.40;99.90
24436;DHT22;12616;52.470;13.436;2023-02-18T09:48:52;6.80;1.00
24436;DHT22;12616;52.470;13.436;2023-02-18T09:51:20;6.70;1.00
24436;DHT22;12616;52.470;13.436;2023-02-18T09:53:48;6.40;1.00
24436;DHT22;12616;52.470;13.436;2023-02-18T09:56:21;6.40;99.90
24436;DHT22;12616;52.470;13.436;2023-02-18T09:58:51;6.70;1.00
24436;DHT22;12616;52.470;13.436;2023-02-18T10:01:24;6.20;1.00
24436;DHT22;12616;52.470;13.436;2023-02-18T10:03:53;6.70;1.00
24436;DHT22;12616;52.470;13.436;2023-02-18T10:06:24;6.60;1.00
24436;DHT22;12616;52.470;13.436;2023-02-18T10:08:54;6.00;99.90
24436;DHT22;12616;52.470;13.436;2023-02-18T10:11:29;6.90;1.00
24436;DHT22;12616;52.470;13.436;2023-02-18T10:13:59;6.50;1.00
24436;DHT22;12616;52.470;13.436;2023-02-18T10:16:27;6.40;1.00
24436;DHT22;12616;52.470;13.436;2023-02-18T10:18:57;6.50;1.00
24436;DHT22;12616;52.470;13.436;2023-02-18T10:21:27;6.20;1.00
24436;DHT22;12616;52.470;13.436;2023-02-18T10:23:59;6.40;1.00
24436;DHT22;12616;52.470;13.436;2023-02-18T10:26:29;6.70;1.00
24436;DHT22;12616;52.470;13.436;2023-02-18T10:28:57;6.40;1.00
24436;DHT22;12616;52.470;13.436;2023-02-18T10:31:32;6.50;1.00
24436;DHT22;12616;52.470;13.436;2023-02-18T10:34:06;6.80;1.00
24436;DHT22;12616;52.470;13.436;2023-02-18T10:36:41;6.90;1.00
24436;DHT22;12616;52.470;13.436;2023-02-18T10:39:24;6.90;1.00
24436;DHT22;12616;52.470;13.436;2023-02-18T10:42:05;6.60;1.00
24436;DHT22;12616;52.470;13.436;2023-02-18T10:44:43;6.60;1.00
24436;DHT22;12616;52.470;13.436;2023-02-18T10:47:21;6.70;1.00
24436;DHT22;12616;52.470;13.436;2023-02-18T10:49:57;6.50;1.00
24436;DHT22;12616;52.470;13.436;2023-02-18T10:52:27;6.80;1.00
24436;DHT22;12616;52.470;13.436;2023-02-18T10:55:01;6.50;1.00
24436;DHT22;12616;52.470;13.436;2023-02-18T10:57:30;6.90;1.00
24436;DHT22;12616;52.470;13.436;2023-02-18T11:00:00;6.30;1.00
24436;DHT22;12616;52.470;13.436;2023-02-18T11:02:35;6.80;1.00
24436;DHT22;12616;52.470;13.436;2023-02-18T11:05:15;6.80;14.10
24436;DHT22;12616;52.470;13.436;2023-02-18T11:07:46;6.60;1.00
24436;DHT22;12616;52.470;13.436;2023-02-18T11:10:18;7.80;1.00
24436;DHT22;12616;52.470;13.436;2023-02-18T11:12:50;6.10;1.00
24436;DHT22;12616;52.470;13.436;2023-02-18T11:15:19;6.50;1.00
24436;DHT22;12616;52.470;13.436;2023-02-18T11:17:49;7.00;38.80
24436;DHT22;12616;52.470;13.436;2023-02-18T11:20:23;6.80;1.00
24436;DHT22;12616;52.470;13.436;2023-02-18T11:22:51;6.80;11.30
24436;DHT22;12616;52.470;13.436;2023-02-18T11:25:22;6.50;13.20
24436;DHT22;12616;52.470;13.436;2023-02-18T11:27:51;6.50;22.90
24436;DHT22;12616;52.470;13.436;2023-02-18T11:30:21;6.90;1.00
24436;DHT22;12616;52.470;13.436;2023-02-18T11:32:52;7.00;99.90
24436;DHT22;12616;52.470;13.436;2023-02-18T11:35:21;6.80;1.00
24436;DHT22;12616;52.470;13.436;2023-02-18T11:37:49;6.50;1.00
24436;DHT22;12616;52.470;13.436;2023-02-18T11:40:22;6.70;75.60
24436;DHT22;12616;52.470;13.436;2023-02-18T11:42:49;6.40;99.90
24436;DHT22;12616;52.470;13.436;2023-02-18T11:45:27;7.10;99.90
24436;DHT22;12616;52.470;13.436;2023-02-18T11:47:59;6.80;99.90
24436;DHT22;12616;52.470;13.436;2023-02-18T11:50:29;6.60;99.90
24436;DHT22;12616;52.470;13.436;2023-02-18T11:52:56;6.50;99.90
24436;DHT22;12616;52.470;13.436;2023-02-18T11:55:28;6.90;5.00
24436;DHT22;12616;52.470;13.436;2023-02-18T11:57:57;7.20;99.90
24436;DHT22;12616;52.470;13.436;2023-02-18T12:00:35;7.40;99.90
24436;DHT22;12616;52.470;13.436;2023-02-18T12:03:08;7.10;99.90
24436;DHT22;12616;52.470;13.436;2023-02-18T12:05:40;7.50;99.90
24436;DHT22;12616;52.470;13.436;2023-02-18T12:08:13;7.60;99.90
24436;DHT22;12616;52.470;13.436;2023-02-18T12:10:46;7.30;99.90
24436;DHT22;12616;52.470;13.436;2023-02-18T12:13:22;7.50;99.90
24436;DHT22;12616;52.470;13.436;2023-02-18T12:15:56;7.60;99.90
24436;DHT22;12616;52.470;13.436;2023-02-18T12:18:33;7.30;99.90
24436;DHT22;12616;52.470;13.436;2023-02-18T12:21:13;8.00;99.90
24436;DHT22;12616;52.470;13.436;2023-02-18T12:23:50;7.70;99.90
24436;DHT22;12616;52.470;13.436;2023-02-18T12:26:26;6.50;99.90
24436;DHT22;12616;52.470;13.436;2023-02-18T12:29:08;7.80;99.90
24436;DHT22;12616;52.470;13.436;2023-02-18T12:31:57;8.00;99.90
24436;DHT22;12616;52.470;13.436;2023-02-18T12:34:42;8.10;99.90
24436;DHT22;12616;52.470;13.436;2023-02-18T12:37:41;8.50;99.90
24436;DHT22;12616;52.470;13.436;2023-02-18T12:40:26;8.30;99.90
24436;DHT22;12616;52.470;13.436;2023-02-18T12:43:05;8.40;99.90
24436;DHT22;12616;52.470;13.436;2023-02-18T12:45:50;8.60;99.90
24436;DHT22;12616;52.470;13.436;2023-02-18T12:48:38;9.10;99.90
24436;DHT22;12616;52.470;13.436;2023-02-18T12:51:15;8.70;99.90
24436;DHT22;12616;52.470;13.436;2023-02-18T12:54:15;8.90;99.90
24436;DHT22;12616;52.470;13.436;2023-02-18T12:57:08;9.10;99.90
24436;DHT22;12616;52.470;13.436;2023-02-18T12:59:56;9.40;99.90
24436;DHT22;12616;52.470;13.436;2023-02-18T13:02:41;9.10;99.90
24436;DHT22;12616;52.470;13.436;2023-02-18T13:05:28;9.60;99.90
24436;DHT22;12616;52.470;13.436;2023-02-18T13:08:09;9.60;99.90
24436;DHT22;12616;52.470;13.436;2023-02-18T13:11:03;9.80;99.90
24436;DHT22;12616;52.470;13.436;2023-02-18T13:13:39;9.90;99.90
24436;DHT22;12616;52.470;13.436;2023-02-18T13:16:12;9.80;99.90
24436;DHT22;12616;52.470;13.436;2023-02-18T13:18:42;9.80;99.90
24436;DHT22;12616;52.470;13.436;2023-02-18T13:21:12;9.60;99.90
24436;DHT22;12616;52.470;13.436;2023-02-18T13:23:48;9.60;99.90
24436;DHT22;12616;52.470;13.436;2023-02-18T13:26:17;10.00;99.90
24436;DHT22;12616;52.470;13.436;2023-02-18T13:28:48;9.60;99.90
24436;DHT22;12616;52.470;13.436;2023-02-18T13:31:31;9.90;99.90
24436;DHT22;12616;52.470;13.436;2023-02-18T13:34:03;10.30;99.90
24436;DHT22;12616;52.470;13.436;2023-02-18T13:36:46;9.70;99.90
24436;DHT22;12616;52.470;13.436;2023-02-18T13:39:17;10.30;99.90
24436;DHT22;12616;52.470;13.436;2023-02-18T13:41:46;9.90;99.90
24436;DHT22;12616;52.470;13.436;2023-02-18T13:44:39;10.20;99.90
24436;DHT22;12616;52.470;13.436;2023-02-18T13:47:07;10.00;99.90
24436;DHT22;12616;52.470;13.436;2023-02-18T13:49:37;10.20;99.90
24436;DHT22;12616;52.470;13.436;2023-02-18T13:52:05;10.40;99.90
24436;DHT22;12616;52.470;13.436;2023-02-18T13:54:37;10.20;99.90
24436;DHT22;12616;52.470;13.436;2023-02-18T13:57:13;9.70;99.90
24436;DHT22;12616;52.470;13.436;2023-02-18T13:59:43;9.60;99.90
24436;DHT22;12616;52.470;13.436;2023-02-18T14:02:32;9.90;99.90
24436;DHT22;12616;52.470;13.436;2023-02-18T14:05:19;9.60;99.90
24436;DHT22;12616;52.470;13.436;2023-02-18T14:07:51;9.90;99.90
24436;DHT22;12616;52.470;13.436;2023-02-18T14:10:34;9.60;99.90
24436;DHT22;12616;52.470;13.436;2023-02-18T14:13:20;10.20;99.90
24436;DHT22;12616;52.470;13.436;2023-02-18T14:15:55;10.20;99.90
24436;DHT22;12616;52.470;13.436;2023-02-18T14:21:35;9.50;99.90
24436;DHT22;12616;52.470;13.436;2023-02-18T14:24:04;9.80;99.90
24436;DHT22;12616;52.470;13.436;2023-02-18T14:26:35;10.00;99.90
24436;DHT22;12616;52.470;13.436;2023-02-18T14:29:10;10.10;99.90
24436;DHT22;12616;52.470;13.436;2023-02-18T14:31:45;10.20;99.90
24436;DHT22;12616;52.470;13.436;2023-02-18T14:34:51;9.80;99.90
24436;DHT22;12616;52.470;13.436;2023-02-18T14:40:58;10.30;99.90
24436;DHT22;12616;52.470;13.436;2023-02-18T14:43:47;9.90;99.90
24436;DHT22;12616;52.470;13.436;2023-02-18T14:46:27;9.90;99.90
24436;DHT22;12616;52.470;13.436;2023-02-18T14:49:09;10.00;99.90
24436;DHT22;12616;52.470;13.436;2023-02-18T14:51:41;9.90;99.90
24436;DHT22;12616;52.470;13.436;2023-02-18T14:54:14;9.70;99.90
24436;DHT22;12616;52.470;13.436;2023-02-18T14:56:51;9.80;99.90
24436;DHT22;12616;52.470;13.436;2023-02-18T14:59:20;9.70;99.90
24436;DHT22;12616;52.470;13.436;2023-02-18T15:01:47;10.30;99.90
24436;DHT22;12616;52.470;13.436;2023-02-18T15:04:15;9.90;99.90
24436;DHT22;12616;52.470;13.436;2023-02-18T15:06:43;9.70;99.90
24436;DHT22;12616;52.470;13.436;2023-02-18T15:09:16;9.90;99.90
24436;DHT22;12616;52.470;13.436;2023-02-18T15:11:45;10.10;99.90
24436;DHT22;12616;52.470;13.436;2023-02-18T15:14:16;10.20;99.90
24436;DHT22;12616;52.470;13.436;2023-02-18T15:16:44;10.10;99.90
24436;DHT22;12616;52.470;13.436;2023-02-18T15:19:14;10.10;99.90
24436;DHT22;12616;52.470;13.436;2023-02-18T15:21:45;10.00;99.90
24436;DHT22;12616;52.470;13.436;2023-02-18T15:24:21;9.90;99.90
24436;DHT22;12616;52.470;13.436;2023-02-18T15:26:49;10.10;99.90
24436;DHT22;12616;52.470;13.436;2023-02-18T15:29:18;10.30;99.90
24436;DHT22;12616;52.470;13.436;2023-02-18T15:31:47;10.00;99.90
24436;DHT22;12616;52.470;13.436;2023-02-18T15:34:30;10.40;99.90
24436;DHT22;12616;52.470;13.436;2023-02-18T15:37:00;10.20;99.90
24436;DHT22;12616;52.470;13.436;2023-02-18T15:39:28;10.60;99.90
24436;DHT22;12616;52.470;13.436;2023-02-18T15:41:59;10.50;99.90
24436;DHT22;12616;52.470;13.436;2023-02-18T15:44:29;10.10;99.90
24436;DHT22;12616;52.470;13.436;2023-02-18T15:46:59;10.40;99.90
24436;DHT22;12616;52.470;13.436;2023-02-18T15:49:27;9.90;99.90
24436;DHT22;12616;52.470;13.436;2023-02-18T15:51:57;10.20;74.70
24436;DHT22;12616;52.470;13.436;2023-02-18T15:54:26;10.20;99.90
24436;DHT22;12616;52.470;13.436;2023-02-18T15:56:55;9.90;99.90
24436;DHT22;12616;52.470;13.436;2023-02-18T15:59:28;10.00;99.90
24436;DHT22;12616;52.470;13.436;2023-02-18T16:02:01;10.00;99.90
24436;DHT22;12616;52.470;13.436;2023-02-18T16:04:31;10.10;99.90
24436;DHT22;12616;52.470;13.436;2023-02-18T16:07:02;10.30;99.90
24436;DHT22;12616;52.470;13.436;2023-02-18T16:09:33;9.90;99.90
24436;DHT22;12616;52.470;13.436;2023-02-18T16:12:02;10.00;99.90
24436;DHT22;12616;52.470;13.436;2023-02-18T16:14:33;10.40;99.90
24436;DHT22;12616;52.470;13.436;2023-02-18T16:17:10;9.80;99.90
24436;DHT22;12616;52.470;13.436;2023-02-18T16:19:46;10.10;99.90
24436;DHT22;12616;52.470;13.436;2023-02-18T16:22:23;9.50;99.90
24436;DHT22;12616;52.470;13.436;2023-02-18T16:24:55;10.10;99.90
24436;DHT22;12616;52.470;13.436;2023-02-18T16:27:30;9.60;99.90
24436;DHT22;12616;52.470;13.436;2023-02-18T16:30:00;9.70;99.90
24436;DHT22;12616;52.470;13.436;2023-02-18T16:34:55;9.70;99.90
24436;DHT22;12616;52.470;13.436;2023-02-18T16:40:21;9.40;99.90
24436;DHT22;12616;52.470;13.436;2023-02-18T16:42:48;9.30;99.90
24436;DHT22;12616;52.470;13.436;2023-02-18T16:45:15;9.20;99.90
24436;DHT22;12616;52.470;13.436;2023-02-18T16:47:43;9.10;99.90
24436;DHT22;12616;52.470;13.436;2023-02-18T16:50:15;9.30;99.90
24436;DHT22;12616;52.470;13.436;2023-02-18T16:55:16;8.10;99.90
24436;DHT22;12616;52.470;13.436;2023-02-18T16:57:43;9.40;99.90
24436;DHT22;12616;52.470;13.436;2023-02-18T17:00:13;9.20;99.90
24436;DHT22;12616;52.470;13.436;2023-02-18T17:02:43;9.20;99.90
24436;DHT22;12616;52.470;13.436;2023-02-18T17:05:16;8.50;99.90
24436;DHT22;12616;52.470;13.436;2023-02-18T17:07:43;9.20;99.90
24436;DHT22;12616;52.470;13.436;2023-02-18T17:10:11;8.70;99.90
24436;DHT22;12616;52.470;13.436;2023-02-18T17:12:39;8.60;99.90
24436;DHT22;12616;52.470;13.436;2023-02-18T17:15:23;8.50;99.90
24436;DHT22;12616;52.470;13.436;2023-02-18T17:17:51;8.20;99.90
24436;DHT22;12616;52.470;13.436;2023-02-18T17:20:18;8.50;99.90
24436;DHT22;12616;52.470;13.436;2023-02-18T17:22:45;8.50;99.90
24436;DHT22;12616;52.470;13.436;2023-02-18T17:25:16;8.00;99.90
24436;DHT22;12616;52.470;13.436;2023-02-18T17:27:45;8.30;99.90
24436;DHT22;12616;52.470;13.436;2023-02-18T17:30:12;8.30;99.90
24436;DHT22;12616;52.470;13.436;2023-02-18T17:32:40;7.60;99.90
24436;DHT22;12616;52.470;13.436;2023-02-18T17:35:13;7.60;99.90
24436;DHT22;12616;52.470;13.436;2023-02-18T17:40:11;7.20;99.90
24436;DHT22;12616;52.470;13.436;2023-02-18T17:42:38;7.40;99.90
24436;DHT22;12616;52.470;13.436;2023-02-18T17:45:14;7.90;99.90